createdAt,value
2022-08-09T00:00:13.327Z,100.00
2022-08-09T00:02:49.525Z,100.00
2022-08-09T00:06:18.730Z,100.00
2022-08-09T00:08:11.330Z,100.00
2022-08-09T00:10:58.232Z,100.00
2022-08-09T00:13:24.830Z,100.00
2022-08-09T00:15:59.638Z,100.00
2022-08-09T00:18:34.759Z,100.00
2022-08-09T00:21:07.803Z,100.00
2022-08-09T00:23:55.288Z,100.00
2022-08-09T00:26:29.988Z,100.00
2022-08-09T00:29:00.480Z,100.00
2022-08-09T00:31:55.863Z,100.00
2022-08-09T00:34:13.664Z,100.00
2022-08-09T00:36:41.559Z,100.00
2022-08-09T00:39:17.042Z,100.00
2022-08-09T00:44:11.080Z,100.00
2022-08-09T00:44:42.606Z,100.00
2022-08-09T00:47:15.344Z,100.00
2022-08-09T00:49:52.422Z,100.00
2022-08-09T00:52:22.879Z,100.00
2022-08-09T00:54:58.893Z,100.00
2022-08-09T00:57:34.944Z,100.00
2022-08-09T01:00:21.231Z,100.00
2022-08-09T01:02:53.677Z,100.00
2022-08-09T01:05:53.742Z,100.00
2022-08-09T01:08:35.096Z,100.00
2022-08-09T01:11:08.421Z,100.00
2022-08-09T01:14:00.353Z,100.00
2022-08-09T01:16:33.385Z,100.00
2022-08-09T01:19:16.989Z,100.00
2022-08-09T01:22:27.458Z,100.00
2022-08-09T01:25:05.880Z,100.00
2022-08-09T01:27:36.051Z,100.00
2022-08-09T01:30:08.250Z,100.00
2022-08-09T01:32:43.870Z,100.00
2022-08-09T01:35:38.083Z,100.00
2022-08-09T01:38:15.388Z,100.00
2022-08-09T01:40:52.926Z,100.00
2022-08-09T01:43:50.108Z,100.00
2022-08-09T01:46:26.483Z,100.00
2022-08-09T01:49:00.172Z,100.00
2022-08-09T01:51:44.248Z,100.00
2022-08-09T01:54:13.777Z,100.00
2022-08-09T01:56:47.143Z,100.00
2022-08-09T01:59:19.794Z,100.00
2022-08-09T02:01:59.834Z,100.00
2022-08-09T02:04:29.676Z,100.00
2022-08-09T02:07:08.499Z,100.00
2022-08-09T02:09:59.877Z,100.00
2022-08-09T02:12:30.787Z,100.00
2022-08-09T02:15:00.777Z,100.00
2022-08-09T02:18:00.424Z,100.00
2022-08-09T02:20:26.399Z,100.00
2022-08-09T02:23:10.053Z,100.00
2022-08-09T02:25:42.190Z,100.00
2022-08-09T02:28:28.996Z,100.00
2022-08-09T02:31:05.969Z,100.00
2022-08-09T02:34:07.422Z,100.00
2022-08-09T02:36:37.507Z,100.00
2022-08-09T02:39:14.323Z,100.00
2022-08-09T02:42:06.681Z,100.00
2022-08-09T02:44:41.309Z,100.00
2022-08-09T02:47:11.384Z,100.00
2022-08-09T02:50:01.766Z,100.00
2022-08-09T02:52:36.562Z,100.00
2022-08-09T02:55:19.848Z,100.00
2022-08-09T02:58:00.774Z,100.00
2022-08-09T03:00:47.730Z,100.00
2022-08-09T03:04:13.138Z,100.00
2022-08-09T03:06:15.030Z,100.00
2022-08-09T03:08:46.299Z,100.00
2022-08-09T03:12:04.814Z,100.00
2022-08-09T03:14:07.118Z,100.00
2022-08-09T03:16:37.357Z,100.00
2022-08-09T03:19:14.306Z,100.00
2022-08-09T03:21:56.618Z,100.00
2022-08-09T03:24:31.567Z,100.00
2022-08-09T03:27:10.772Z,100.00
2022-08-09T03:29:58.188Z,100.00
2022-08-09T03:32:26.794Z,100.00
2022-08-09T03:34:55.891Z,100.00
2022-08-09T03:37:55.958Z,100.00
2022-08-09T03:40:13.139Z,100.00
2022-08-09T03:42:40.062Z,100.00
2022-08-09T03:45:10.903Z,100.00
2022-08-09T03:47:40.268Z,100.00
2022-08-09T03:50:10.875Z,100.00
2022-08-09T03:52:40.556Z,100.00
2022-08-09T03:55:10.711Z,100.00
2022-08-09T03:57:44.759Z,100.00
2022-08-09T04:00:28.300Z,100.00
2022-08-09T04:02:57.376Z,100.00
2022-08-09T04:05:27.996Z,100.00
2022-08-09T04:07:57.754Z,100.00
2022-08-09T04:10:29.480Z,100.00
2022-08-09T04:13:01.007Z,100.00
2022-08-09T04:15:38.874Z,100.00
2022-08-09T04:18:16.590Z,100.00
2022-08-09T04:20:45.791Z,100.00
2022-08-09T04:23:16.874Z,100.00
2022-08-09T04:25:44.037Z,100.00
2022-08-09T04:28:10.598Z,100.00
2022-08-09T04:30:39.088Z,100.00
2022-08-09T04:33:11.625Z,100.00
2022-08-09T04:35:40.654Z,100.00
2022-08-09T04:38:09.145Z,100.00
2022-08-09T04:40:54.279Z,100.00
2022-08-09T04:43:25.261Z,100.00
2022-08-09T04:45:53.690Z,100.00
2022-08-09T04:48:20.663Z,100.00
2022-08-09T04:50:50.199Z,100.00
2022-08-09T04:53:16.827Z,100.00
2022-08-09T04:55:57.736Z,100.00
2022-08-09T04:58:27.230Z,100.00
2022-08-09T05:00:54.503Z,100.00
2022-08-09T05:03:40.614Z,100.00
2022-08-09T05:06:09.262Z,100.00
2022-08-09T05:08:36.234Z,100.00
2022-08-09T05:11:03.436Z,100.00
2022-08-09T05:13:33.984Z,100.00
2022-08-09T05:16:07.162Z,100.00
2022-08-09T05:18:38.948Z,100.00
2022-08-09T05:21:22.948Z,100.00
2022-08-09T05:23:58.258Z,100.00
2022-08-09T05:26:36.913Z,100.00
2022-08-09T05:29:17.239Z,100.00
2022-08-09T05:31:46.636Z,100.00
2022-08-09T05:34:17.077Z,100.00
2022-08-09T05:36:47.216Z,100.00
2022-08-09T05:39:28.835Z,100.00
2022-08-09T05:42:01.722Z,100.00
2022-08-09T05:44:32.602Z,100.00
2022-08-09T05:47:00.167Z,100.00
2022-08-09T05:50:24.135Z,100.00
2022-08-09T05:52:13.858Z,100.00
2022-08-09T05:54:41.945Z,100.00
2022-08-09T05:57:12.734Z,100.00
2022-08-09T05:59:41.911Z,100.00
2022-08-09T06:02:09.991Z,100.00
2022-08-09T06:04:36.859Z,100.00
2022-08-09T06:07:11.554Z,100.00
2022-08-09T06:09:55.201Z,100.00
2022-08-09T06:12:30.532Z,100.00
2022-08-09T06:15:01.056Z,100.00
2022-08-09T06:17:39.751Z,100.00
2022-08-09T06:20:07.643Z,100.00
2022-08-09T06:22:34.743Z,100.00
2022-08-09T06:25:01.710Z,100.00
2022-08-09T06:27:43.199Z,100.00
2022-08-09T06:30:16.237Z,100.00
2022-08-09T06:33:00.211Z,100.00
2022-08-09T06:35:56.605Z,100.00
2022-08-09T06:38:17.505Z,96.76
2022-08-09T06:40:45.896Z,97.35
2022-08-09T06:43:13.588Z,94.75
2022-08-09T06:46:06.399Z,93.99
2022-08-09T06:48:30.859Z,89.10
2022-08-09T06:50:59.165Z,91.00
2022-08-09T06:53:25.807Z,87.93
2022-08-09T06:55:52.662Z,89.42
2022-08-09T06:58:40.887Z,86.08
2022-08-09T07:01:08.003Z,83.49
2022-08-09T07:03:39.495Z,79.54
2022-08-09T07:06:18.810Z,80.31
2022-08-09T07:08:46.605Z,78.60
2022-08-09T07:11:17.714Z,77.75
2022-08-09T07:14:05.545Z,77.64
2022-08-09T07:16:42.914Z,74.51
2022-08-09T07:19:23.087Z,74.77
2022-08-09T07:21:57.010Z,76.34
2022-08-09T07:24:32.879Z,76.17
2022-08-09T07:27:23.942Z,73.62
2022-08-09T07:29:57.179Z,74.88
2022-08-09T07:32:33.095Z,73.97
2022-08-09T07:35:11.471Z,72.33
2022-08-09T07:37:42.876Z,73.48
2022-08-09T07:40:13.616Z,73.26
2022-08-09T07:42:58.658Z,71.73
2022-08-09T07:45:37.600Z,71.65
2022-08-09T07:48:05.812Z,69.02
2022-08-09T07:50:34.815Z,66.46
2022-08-09T07:53:04.731Z,65.41
2022-08-09T07:55:41.413Z,62.19
2022-08-09T07:58:19.046Z,64.66
2022-08-09T08:00:55.792Z,62.86
2022-08-09T08:03:32.647Z,61.70
2022-08-09T08:05:59.437Z,61.79
2022-08-09T08:09:01.418Z,59.87
2022-08-09T08:12:10.640Z,57.41
2022-08-09T08:14:00.619Z,56.35
2022-08-09T08:16:31.251Z,55.08
2022-08-09T08:18:59.339Z,55.30
2022-08-09T08:21:26.627Z,54.53
2022-08-09T08:23:55.959Z,53.73
2022-08-09T08:26:26.323Z,53.96
2022-08-09T08:28:53.470Z,54.18
2022-08-09T08:31:20.039Z,52.10
2022-08-09T08:33:54.036Z,51.76
2022-08-09T08:36:28.909Z,51.67
2022-08-09T08:38:57.382Z,49.82
2022-08-09T08:41:24.636Z,49.98
2022-08-09T08:44:09.497Z,49.80
2022-08-09T08:47:02.671Z,50.42
2022-08-09T08:49:33.317Z,50.14
2022-08-09T08:52:10.166Z,48.72
2022-08-09T08:54:37.812Z,47.80
2022-08-09T08:57:11.396Z,49.01
2022-08-09T08:59:44.535Z,45.91
2022-08-09T09:02:30.782Z,47.55
2022-08-09T09:05:03.024Z,47.54
2022-08-09T09:07:36.819Z,46.11
2022-08-09T09:10:10.240Z,46.55
2022-08-09T09:12:37.133Z,46.31
2022-08-09T09:15:06.483Z,46.31
2022-08-09T09:17:48.229Z,46.22
2022-08-09T09:20:16.464Z,45.59
2022-08-09T09:22:52.914Z,45.05
2022-08-09T09:26:01.042Z,44.70
2022-08-09T09:29:02.236Z,43.16
2022-08-09T09:32:06.669Z,46.29
2022-08-09T09:34:14.327Z,43.57
2022-08-09T09:36:46.701Z,43.17
2022-08-09T09:39:22.778Z,42.53
2022-08-09T09:41:51.340Z,43.25
2022-08-09T09:44:31.749Z,43.52
2022-08-09T09:47:10.479Z,43.02
2022-08-09T09:50:07.436Z,41.52
2022-08-09T09:52:36.991Z,43.08
2022-08-09T09:55:27.591Z,41.45
2022-08-09T09:58:17.347Z,42.99
2022-08-09T10:01:04.731Z,42.34
2022-08-09T10:03:57.470Z,41.32
2022-08-09T10:06:43.427Z,41.36
2022-08-09T10:09:22.249Z,40.76
2022-08-09T10:12:12.304Z,42.59
2022-08-09T10:14:48.752Z,41.93
2022-08-09T10:17:51.308Z,39.57
2022-08-09T10:20:27.512Z,39.60
2022-08-09T10:23:17.315Z,40.21
2022-08-09T10:26:04.866Z,39.25
2022-08-09T10:28:35.508Z,39.54
2022-08-09T10:34:10.506Z,40.45
2022-08-09T10:36:36.674Z,41.10
2022-08-09T10:39:05.965Z,39.87
2022-08-09T10:41:42.816Z,38.93
2022-08-09T10:44:10.168Z,38.93
2022-08-09T10:46:57.771Z,39.43
2022-08-09T10:49:51.720Z,39.97
2022-08-09T10:52:42.910Z,40.16
2022-08-09T10:55:26.042Z,40.09
2022-08-09T10:57:55.520Z,39.63
2022-08-09T11:00:31.472Z,37.71
2022-08-09T11:03:27.582Z,36.90
2022-08-09T11:06:22.950Z,37.90
2022-08-09T11:08:51.798Z,38.42
2022-08-09T11:11:20.960Z,37.46
2022-08-09T11:14:28.150Z,38.13
2022-08-09T11:16:57.054Z,36.82
2022-08-09T11:20:10.965Z,37.60
2022-08-09T11:22:45.258Z,37.64
2022-08-09T11:25:15.689Z,37.22
2022-08-09T11:28:05.538Z,37.01
2022-08-09T11:30:37.744Z,38.20
2022-08-09T11:33:29.836Z,37.54
2022-08-09T11:35:58.545Z,37.08
2022-08-09T11:38:33.121Z,36.57
2022-08-09T11:41:13.628Z,36.65
2022-08-09T11:43:48.804Z,36.34
2022-08-09T11:46:26.516Z,36.74
2022-08-09T11:49:00.691Z,36.15
2022-08-09T11:52:49.142Z,36.16
2022-08-09T11:55:35.018Z,34.86
2022-08-09T11:58:16.361Z,34.71
2022-08-09T12:01:00.087Z,35.68
2022-08-09T12:03:50.411Z,35.33
2022-08-09T12:06:26.441Z,35.56
2022-08-09T12:08:55.303Z,34.58
2022-08-09T12:11:24.631Z,34.74
2022-08-09T12:14:10.614Z,34.03
2022-08-09T12:16:41.618Z,35.35
2022-08-09T12:19:12.253Z,35.12
2022-08-09T12:21:48.708Z,34.62
2022-08-09T12:24:23.997Z,34.67
2022-08-09T12:29:09.668Z,34.37
2022-08-09T12:29:59.786Z,34.12
2022-08-09T12:32:31.313Z,33.39
2022-08-09T12:35:04.670Z,33.20
2022-08-09T12:37:50.478Z,32.69
2022-08-09T12:40:20.458Z,32.86
2022-08-09T12:42:50.639Z,34.00
2022-08-09T12:45:34.787Z,32.20
2022-08-09T12:48:10.849Z,34.24
2022-08-09T12:50:53.853Z,33.34
2022-08-09T12:53:37.240Z,33.68
2022-08-09T12:56:43.433Z,32.78
2022-08-09T12:59:10.950Z,33.08
2022-08-09T13:01:42.745Z,32.73
2022-08-09T13:04:36.913Z,33.48
2022-08-09T13:07:19.341Z,33.26
2022-08-09T13:09:52.646Z,33.23
2022-08-09T13:12:22.784Z,33.96
2022-08-09T13:14:53.880Z,34.42
2022-08-09T13:17:44.183Z,34.79
2022-08-09T13:20:17.414Z,33.73
2022-08-09T13:23:05.204Z,34.03
2022-08-09T13:25:54.369Z,33.47
2022-08-09T13:28:33.941Z,34.66
2022-08-09T13:32:13.912Z,34.67
2022-08-09T13:33:54.762Z,33.83
2022-08-09T13:36:24.467Z,34.36
2022-08-09T13:41:20.786Z,35.84
2022-08-09T13:42:00.694Z,33.77
2022-08-09T13:44:28.915Z,34.08
2022-08-09T13:47:26.686Z,34.21
2022-08-09T13:49:58.187Z,35.36
2022-08-09T13:52:29.269Z,35.87
2022-08-09T13:55:00.139Z,40.53
2022-08-09T13:57:36.575Z,41.24
2022-08-09T14:00:10.085Z,42.52
2022-08-09T14:02:42.469Z,42.22
2022-08-09T14:05:58.696Z,44.01
2022-08-09T14:08:10.446Z,43.30
2022-08-09T14:10:46.216Z,44.84
2022-08-09T14:13:28.341Z,45.85
2022-08-09T14:16:10.851Z,44.97
2022-08-09T14:18:39.263Z,43.82
2022-08-09T14:21:17.754Z,45.82
2022-08-09T14:23:55.067Z,43.76
2022-08-09T14:26:32.975Z,43.69
2022-08-09T14:29:25.601Z,42.28
2022-08-09T14:31:58.205Z,41.09
2022-08-09T14:34:33.023Z,43.57
2022-08-09T14:37:01.727Z,43.58
2022-08-09T14:39:40.129Z,43.70
2022-08-09T14:42:13.083Z,44.91
2022-08-09T14:45:01.621Z,44.67
2022-08-09T14:47:57.359Z,46.03
2022-08-09T14:50:31.443Z,46.38
2022-08-09T14:53:00.234Z,46.19
2022-08-09T14:55:31.992Z,48.29
2022-08-09T14:58:05.277Z,48.93
2022-08-09T15:00:33.720Z,48.00
2022-08-09T15:03:01.941Z,48.21
2022-08-09T15:05:30.667Z,48.46
2022-08-09T15:07:58.341Z,49.40
2022-08-09T15:10:26.831Z,48.20
2022-08-09T15:12:54.762Z,47.20
2022-08-09T15:15:22.550Z,46.79
2022-08-09T15:17:52.811Z,47.99
2022-08-09T15:21:56.201Z,46.80
2022-08-09T15:23:56.052Z,45.80
2022-08-09T15:25:58.547Z,46.24
2022-08-09T15:28:27.991Z,47.35
2022-08-09T15:31:08.592Z,47.37
2022-08-09T15:34:19.545Z,47.92
2022-08-09T15:36:29.247Z,48.95
2022-08-09T15:38:58.674Z,48.30
2022-08-09T15:41:31.299Z,47.51
2022-08-09T15:44:02.635Z,48.34
2022-08-09T15:46:33.200Z,48.58
2022-08-09T15:49:23.054Z,49.03
2022-08-09T15:52:04.827Z,49.84
2022-08-09T15:54:44.590Z,48.74
2022-08-09T15:57:34.963Z,48.93
2022-08-09T16:00:10.920Z,50.62
2022-08-09T16:02:41.099Z,49.83
2022-08-09T16:05:10.589Z,49.77
2022-08-09T16:07:38.823Z,50.00
2022-08-09T16:10:11.052Z,50.48
2022-08-09T16:12:50.136Z,50.59
2022-08-09T16:16:04.787Z,51.72
2022-08-09T16:18:05.207Z,51.63
2022-08-09T16:20:31.814Z,51.84
2022-08-09T16:22:58.372Z,51.62
2022-08-09T16:25:36.945Z,52.48
2022-08-09T16:28:07.062Z,52.95
2022-08-09T16:30:33.693Z,52.29
2022-08-09T16:33:10.091Z,52.86
2022-08-09T16:35:53.096Z,53.10
2022-08-09T16:38:24.581Z,53.02
2022-08-09T16:40:52.011Z,53.58
2022-08-09T16:43:18.663Z,54.14
2022-08-09T16:45:48.025Z,54.09
2022-08-09T16:48:40.748Z,54.28
2022-08-09T16:51:07.511Z,54.89
2022-08-09T16:53:36.421Z,55.07
2022-08-09T16:56:10.094Z,54.90
2022-08-09T16:58:39.890Z,55.32
2022-08-09T17:01:16.579Z,55.52
2022-08-09T17:03:46.264Z,56.12
2022-08-09T17:06:32.127Z,56.33
2022-08-09T17:09:16.099Z,56.47
2022-08-09T17:11:51.618Z,56.81
2022-08-09T17:14:26.038Z,56.68
2022-08-09T17:16:55.862Z,57.41
2022-08-09T17:19:22.396Z,57.71
2022-08-09T17:21:54.549Z,58.44
2022-08-09T17:24:30.168Z,58.56
2022-08-09T17:26:58.281Z,59.12
2022-08-09T17:29:25.341Z,59.39
2022-08-09T17:32:01.876Z,59.86
2022-08-09T17:35:07.545Z,60.32
2022-08-09T17:37:19.552Z,60.57
2022-08-09T17:39:52.543Z,60.68
2022-08-09T17:42:41.180Z,61.49
2022-08-09T17:45:16.021Z,62.54
2022-08-09T17:47:55.003Z,63.18
2022-08-09T17:50:36.015Z,63.61
2022-08-09T17:53:19.750Z,63.78
2022-08-09T17:55:51.961Z,64.03
2022-08-09T17:58:26.775Z,65.03
2022-08-09T18:00:56.307Z,65.93
2022-08-09T18:03:24.536Z,66.25
2022-08-09T18:05:53.237Z,66.62
2022-08-09T18:08:22.150Z,67.53
2022-08-09T18:11:01.053Z,67.62
2022-08-09T18:13:38.978Z,68.54
2022-08-09T18:16:16.496Z,68.95
2022-08-09T18:18:49.175Z,69.19
2022-08-09T18:21:23.022Z,69.89
2022-08-09T18:24:10.730Z,69.97
2022-08-09T18:26:38.899Z,71.04
2022-08-09T18:30:38.343Z,71.74
2022-08-09T18:32:01.017Z,72.98
2022-08-09T18:34:31.506Z,73.98
2022-08-09T18:36:58.380Z,74.60
2022-08-09T18:39:25.799Z,75.27
2022-08-09T18:42:01.076Z,75.79
2022-08-09T18:44:28.077Z,75.89
2022-08-09T18:47:07.448Z,76.51
2022-08-09T18:49:43.332Z,76.79
2022-08-09T18:52:14.590Z,77.23
2022-08-09T18:54:52.166Z,78.18
2022-08-09T18:57:19.907Z,79.14
2022-08-09T18:59:54.418Z,79.75
2022-08-09T19:02:23.980Z,81.16
2022-08-09T19:05:03.983Z,82.02
2022-08-09T19:07:42.170Z,83.20
2022-08-09T19:10:26.902Z,83.79
2022-08-09T19:13:17.949Z,84.68
2022-08-09T19:15:47.189Z,85.20
2022-08-09T19:18:33.310Z,85.92
2022-08-09T19:21:09.714Z,86.88
2022-08-09T19:24:39.832Z,87.57
2022-08-09T19:26:31.060Z,88.34
2022-08-09T19:29:01.731Z,88.84
2022-08-09T19:31:30.236Z,89.17
2022-08-09T19:33:57.826Z,89.85
2022-08-09T19:36:31.042Z,91.18
2022-08-09T19:39:01.137Z,91.35
2022-08-09T19:41:33.171Z,92.67
2022-08-09T19:44:03.361Z,92.95
2022-08-09T19:46:35.339Z,93.76
2022-08-09T19:50:10.139Z,94.27
2022-08-09T19:51:55.467Z,95.04
2022-08-09T19:54:25.099Z,95.38
2022-08-09T19:56:52.349Z,95.85
2022-08-09T19:59:58.481Z,96.14
2022-08-09T20:03:23.934Z,96.46
2022-08-09T20:04:54.854Z,96.49
2022-08-09T20:07:22.504Z,96.75
2022-08-09T20:09:49.314Z,97.28
2022-08-09T20:12:30.209Z,98.78
2022-08-09T20:15:04.499Z,98.76
2022-08-09T20:17:41.661Z,99.34
2022-08-09T20:20:15.504Z,99.09
2022-08-09T20:22:46.371Z,99.57
2022-08-09T20:25:13.210Z,99.92
2022-08-09T20:27:49.121Z,100.00
2022-08-09T20:30:18.081Z,100.00
2022-08-09T20:32:52.315Z,100.00
2022-08-09T20:35:20.298Z,100.00
2022-08-09T20:38:19.097Z,100.00
2022-08-09T20:40:33.817Z,100.00
2022-08-09T20:43:18.534Z,100.00
2022-08-09T20:46:00.567Z,100.00
2022-08-09T20:48:36.986Z,100.00
2022-08-09T20:51:05.686Z,100.00
2022-08-09T20:53:36.632Z,100.00
2022-08-09T20:56:20.767Z,100.00
2022-08-09T20:58:50.178Z,100.00
2022-08-09T21:01:34.590Z,100.00
2022-08-09T21:05:48.941Z,100.00
2022-08-09T21:06:51.659Z,100.00
2022-08-09T21:09:32.922Z,100.00
2022-08-09T21:14:34.673Z,100.00
2022-08-09T21:17:02.613Z,100.00
2022-08-09T21:20:18.639Z,100.00
2022-08-09T21:22:41.319Z,100.00
2022-08-09T21:25:27.821Z,100.00
2022-08-09T21:28:07.073Z,100.00
2022-08-09T21:30:37.087Z,100.00
2022-08-09T21:33:07.700Z,100.00
2022-08-09T21:35:40.652Z,100.00
2022-08-09T21:38:11.698Z,100.00
2022-08-09T21:40:39.175Z,100.00
2022-08-09T21:43:07.958Z,100.00
2022-08-09T21:45:39.127Z,100.00
2022-08-09T21:48:07.054Z,100.00
2022-08-09T21:50:38.422Z,100.00
2022-08-09T21:53:24.022Z,100.00
2022-08-09T21:55:54.254Z,100.00
2022-08-09T21:58:21.052Z,100.00
2022-08-09T22:00:55.832Z,100.00
2022-08-09T22:03:25.781Z,100.00
2022-08-09T22:05:54.231Z,100.00
2022-08-09T22:08:24.469Z,100.00
2022-08-09T22:11:00.955Z,100.00
2022-08-09T22:13:42.238Z,100.00
2022-08-09T22:16:10.183Z,100.00
2022-08-09T22:18:38.341Z,100.00
2022-08-09T22:21:09.556Z,100.00
2022-08-09T22:23:59.356Z,100.00
2022-08-09T22:26:34.919Z,100.00
2022-08-09T22:29:07.385Z,100.00
2022-08-09T22:31:35.422Z,100.00
2022-08-09T22:34:02.614Z,100.00
2022-08-09T22:36:29.157Z,100.00
2022-08-09T22:39:20.535Z,100.00
2022-08-09T22:41:59.114Z,100.00
2022-08-09T22:44:29.887Z,100.00
2022-08-09T22:48:11.599Z,100.00
2022-08-09T22:49:46.468Z,98.80
2022-08-09T22:52:13.093Z,97.78
2022-08-09T22:54:42.385Z,97.37
2022-08-09T22:57:14.452Z,96.99
2022-08-09T22:59:57.273Z,96.26
2022-08-09T23:02:27.422Z,96.28
2022-08-09T23:04:54.781Z,96.42
2022-08-09T23:08:21.885Z,96.44
2022-08-09T23:10:31.937Z,96.84
2022-08-09T23:12:59.456Z,97.10
2022-08-09T23:15:27.433Z,97.16
2022-08-09T23:17:54.365Z,97.55
2022-08-09T23:20:21.314Z,98.84
2022-08-09T23:22:47.905Z,99.42
2022-08-09T23:25:14.514Z,99.65
2022-08-09T23:28:14.077Z,100.00
2022-08-09T23:30:27.979Z,100.00
2022-08-09T23:32:54.469Z,100.00
2022-08-09T23:35:21.007Z,100.00
2022-08-09T23:37:47.567Z,99.38
2022-08-09T23:40:14.181Z,99.61
2022-08-09T23:42:40.807Z,99.21
2022-08-09T23:45:08.864Z,99.45
2022-08-09T23:47:35.575Z,98.88
2022-08-09T23:50:02.097Z,98.75
2022-08-09T23:52:28.666Z,98.76
2022-08-09T23:54:57.465Z,98.86
2022-08-09T23:57:23.966Z,99.45
